Armstrong, Texas
Current Conditions -  °F | °C
As of 5:00 AM on Thursday 23 Oct 2014 (Local Time) from KBKS Reporting Station
Clear Clear  
Wind Chill: 64°   Ceiling: Unl
Heat Index: 64°   Visibility: 10mi
Dew Point: 63°   Wind: 5mph
Humidity: 94%   Direction: 10°N
Pressure: 30.03"   Gusts: NA
Location:  26.92°N, 97.79°W
Report Text: KBKS 231000Z AUTO 01004KT 10SM CLR 18/17 A3003 RMK AO1 T01790170
Loading
Personal Weather Stations






























Interactive Weather Map New forecast layout! Learn more

10-Day Weather Forecast

Advertisements
Track Severe Weather on mobile